sensor_id;sensor_type;location;lat;lon;timestamp;P1;durP1;ratioP1;P2;durP2;ratioP2
9729;SDS011;4904;49.152;11.004;2023-08-24T00:00:21;7.28;;;6.55;;
9729;SDS011;4904;49.152;11.004;2023-08-24T00:02:48;7.28;;;6.50;;
9729;SDS011;4904;49.152;11.004;2023-08-24T00:05:15;6.32;;;5.72;;
9729;SDS011;4904;49.152;11.004;2023-08-24T00:07:42;6.40;;;5.80;;
9729;SDS011;4904;49.152;11.004;2023-08-24T00:10:08;8.77;;;6.75;;
9729;SDS011;4904;49.152;11.004;2023-08-24T00:12:37;7.50;;;6.40;;
9729;SDS011;4904;49.152;11.004;2023-08-24T00:15:04;7.03;;;6.43;;
9729;SDS011;4904;49.152;11.004;2023-08-24T00:17:35;8.73;;;6.57;;
9729;SDS011;4904;49.152;11.004;2023-08-24T00:20:04;7.38;;;6.70;;
9729;SDS011;4904;49.152;11.004;2023-08-24T00:22:35;8.00;;;6.93;;
9729;SDS011;4904;49.152;11.004;2023-08-24T00:25:03;8.23;;;7.35;;
9729;SDS011;4904;49.152;11.004;2023-08-24T00:27:31;9.90;;;7.28;;
9729;SDS011;4904;49.152;11.004;2023-08-24T00:30:00;7.15;;;6.45;;
9729;SDS011;4904;49.152;11.004;2023-08-24T00:32:28;8.32;;;6.70;;
9729;SDS011;4904;49.152;11.004;2023-08-24T00:34:59;7.97;;;6.88;;
9729;SDS011;4904;49.152;11.004;2023-08-24T00:37:26;8.57;;;6.70;;
9729;SDS011;4904;49.152;11.004;2023-08-24T00:39:53;7.90;;;7.10;;
9729;SDS011;4904;49.152;11.004;2023-08-24T00:42:21;6.82;;;6.15;;
9729;SDS011;4904;49.152;11.004;2023-08-24T00:44:47;7.70;;;7.05;;
9729;SDS011;4904;49.152;11.004;2023-08-24T00:47:16;7.85;;;6.40;;
9729;SDS011;4904;49.152;11.004;2023-08-24T00:49:43;8.75;;;7.30;;
9729;SDS011;4904;49.152;11.004;2023-08-24T00:52:10;9.95;;;7.55;;
9729;SDS011;4904;49.152;11.004;2023-08-24T00:54:37;8.02;;;7.22;;
9729;SDS011;4904;49.152;11.004;2023-08-24T00:57:05;9.13;;;7.47;;
9729;SDS011;4904;49.152;11.004;2023-08-24T00:59:32;8.80;;;6.97;;
9729;SDS011;4904;49.152;11.004;2023-08-24T01:02:00;10.40;;;7.10;;
9729;SDS011;4904;49.152;11.004;2023-08-24T01:04:29;8.40;;;6.47;;
9729;SDS011;4904;49.152;11.004;2023-08-24T01:06:56;8.13;;;7.20;;
9729;SDS011;4904;49.152;11.004;2023-08-24T01:09:23;7.80;;;7.03;;
9729;SDS011;4904;49.152;11.004;2023-08-24T01:11:53;8.65;;;7.00;;
9729;SDS011;4904;49.152;11.004;2023-08-24T01:14:30;8.93;;;6.88;;
9729;SDS011;4904;49.152;11.004;2023-08-24T01:17:07;7.45;;;6.75;;
9729;SDS011;4904;49.152;11.004;2023-08-24T01:19:39;7.93;;;7.13;;
9729;SDS011;4904;49.152;11.004;2023-08-24T01:22:11;9.85;;;7.03;;
9729;SDS011;4904;49.152;11.004;2023-08-24T01:24:47;10.15;;;6.47;;
9729;SDS011;4904;49.152;11.004;2023-08-24T01:27:21;9.00;;;7.03;;
9729;SDS011;4904;49.152;11.004;2023-08-24T01:29:48;8.07;;;6.05;;
9729;SDS011;4904;49.152;11.004;2023-08-24T01:32:17;8.80;;;6.53;;
9729;SDS011;4904;49.152;11.004;2023-08-24T01:34:44;7.63;;;6.28;;
9729;SDS011;4904;49.152;11.004;2023-08-24T01:37:11;8.98;;;6.72;;
9729;SDS011;4904;49.152;11.004;2023-08-24T01:39:41;6.85;;;6.20;;
9729;SDS011;4904;49.152;11.004;2023-08-24T01:42:13;7.45;;;6.75;;
9729;SDS011;4904;49.152;11.004;2023-08-24T01:44:50;6.90;;;6.20;;
9729;SDS011;4904;49.152;11.004;2023-08-24T01:47:20;7.60;;;6.95;;
9729;SDS011;4904;49.152;11.004;2023-08-24T01:49:49;9.65;;;6.53;;
9729;SDS011;4904;49.152;11.004;2023-08-24T01:52:16;8.05;;;7.25;;
9729;SDS011;4904;49.152;11.004;2023-08-24T01:54:44;7.43;;;6.82;;
9729;SDS011;4904;49.152;11.004;2023-08-24T01:57:11;7.85;;;7.07;;
9729;SDS011;4904;49.152;11.004;2023-08-24T01:59:38;10.35;;;7.45;;
9729;SDS011;4904;49.152;11.004;2023-08-24T02:02:06;7.97;;;7.18;;
9729;SDS011;4904;49.152;11.004;2023-08-24T02:04:33;7.60;;;6.90;;
9729;SDS011;4904;49.152;11.004;2023-08-24T02:07:00;8.65;;;6.88;;
9729;SDS011;4904;49.152;11.004;2023-08-24T02:09:27;8.88;;;6.75;;
9729;SDS011;4904;49.152;11.004;2023-08-24T02:11:55;7.72;;;7.03;;
9729;SDS011;4904;49.152;11.004;2023-08-24T02:14:22;7.85;;;6.22;;
9729;SDS011;4904;49.152;11.004;2023-08-24T02:16:49;6.80;;;6.22;;
9729;SDS011;4904;49.152;11.004;2023-08-24T02:19:17;7.20;;;6.55;;
9729;SDS011;4904;49.152;11.004;2023-08-24T02:21:44;7.35;;;6.82;;
9729;SDS011;4904;49.152;11.004;2023-08-24T02:24:11;8.07;;;7.13;;
9729;SDS011;4904;49.152;11.004;2023-08-24T02:26:38;7.65;;;6.78;;
9729;SDS011;4904;49.152;11.004;2023-08-24T02:29:05;8.05;;;6.85;;
9729;SDS011;4904;49.152;11.004;2023-08-24T02:31:31;7.60;;;7.00;;
9729;SDS011;4904;49.152;11.004;2023-08-24T02:33:58;8.20;;;7.47;;
9729;SDS011;4904;49.152;11.004;2023-08-24T02:36:26;7.07;;;6.50;;
9729;SDS011;4904;49.152;11.004;2023-08-24T02:38:53;7.32;;;6.72;;
9729;SDS011;4904;49.152;11.004;2023-08-24T02:41:20;7.40;;;6.80;;
9729;SDS011;4904;49.152;11.004;2023-08-24T02:43:47;7.45;;;6.75;;
9729;SDS011;4904;49.152;11.004;2023-08-24T02:46:14;7.95;;;7.15;;
9729;SDS011;4904;49.152;11.004;2023-08-24T02:48:41;10.13;;;6.60;;
9729;SDS011;4904;49.152;11.004;2023-08-24T02:51:08;8.45;;;6.80;;
9729;SDS011;4904;49.152;11.004;2023-08-24T02:53:36;7.78;;;6.68;;
9729;SDS011;4904;49.152;11.004;2023-08-24T02:56:03;7.20;;;6.53;;
9729;SDS011;4904;49.152;11.004;2023-08-24T02:58:30;7.00;;;6.40;;
9729;SDS011;4904;49.152;11.004;2023-08-24T03:00:57;7.05;;;6.32;;
9729;SDS011;4904;49.152;11.004;2023-08-24T03:03:25;7.95;;;6.10;;
9729;SDS011;4904;49.152;11.004;2023-08-24T03:05:54;8.25;;;6.82;;
9729;SDS011;4904;49.152;11.004;2023-08-24T03:08:21;8.55;;;6.53;;
9729;SDS011;4904;49.152;11.004;2023-08-24T03:10:50;7.50;;;6.78;;
9729;SDS011;4904;49.152;11.004;2023-08-24T03:13:16;6.90;;;6.22;;
9729;SDS011;4904;49.152;11.004;2023-08-24T03:15:44;6.88;;;6.38;;
9729;SDS011;4904;49.152;11.004;2023-08-24T03:18:11;7.22;;;6.50;;
9729;SDS011;4904;49.152;11.004;2023-08-24T03:20:39;8.02;;;6.70;;
9729;SDS011;4904;49.152;11.004;2023-08-24T03:23:06;8.15;;;6.57;;
9729;SDS011;4904;49.152;11.004;2023-08-24T03:25:35;7.32;;;6.68;;
9729;SDS011;4904;49.152;11.004;2023-08-24T03:28:04;7.20;;;6.60;;
9729;SDS011;4904;49.152;11.004;2023-08-24T03:30:33;7.13;;;6.53;;
9729;SDS011;4904;49.152;11.004;2023-08-24T03:33:00;7.15;;;6.47;;
9729;SDS011;4904;49.152;11.004;2023-08-24T03:35:28;7.65;;;6.95;;
9729;SDS011;4904;49.152;11.004;2023-08-24T03:37:55;7.28;;;6.63;;
9729;SDS011;4904;49.152;11.004;2023-08-24T03:40:22;9.57;;;6.68;;
9729;SDS011;4904;49.152;11.004;2023-08-24T03:42:48;7.05;;;6.35;;
9729;SDS011;4904;49.152;11.004;2023-08-24T03:45:17;6.45;;;5.85;;
9729;SDS011;4904;49.152;11.004;2023-08-24T03:47:44;7.10;;;6.50;;
9729;SDS011;4904;49.152;11.004;2023-08-24T03:50:10;7.07;;;6.38;;
9729;SDS011;4904;49.152;11.004;2023-08-24T03:52:37;7.15;;;6.47;;
9729;SDS011;4904;49.152;11.004;2023-08-24T03:55:04;7.10;;;6.50;;
9729;SDS011;4904;49.152;11.004;2023-08-24T03:57:32;7.93;;;7.15;;
9729;SDS011;4904;49.152;11.004;2023-08-24T03:59:59;9.27;;;6.45;;
9729;SDS011;4904;49.152;11.004;2023-08-24T04:02:28;7.25;;;6.65;;
9729;SDS011;4904;49.152;11.004;2023-08-24T04:04:54;7.53;;;6.75;;
9729;SDS011;4904;49.152;11.004;2023-08-24T04:07:21;7.20;;;6.57;;
9729;SDS011;4904;49.152;11.004;2023-08-24T04:09:48;7.28;;;6.63;;
9729;SDS011;4904;49.152;11.004;2023-08-24T04:12:15;7.22;;;6.00;;
9729;SDS011;4904;49.152;11.004;2023-08-24T04:14:42;8.48;;;6.45;;
9729;SDS011;4904;49.152;11.004;2023-08-24T04:17:09;6.95;;;6.13;;
9729;SDS011;4904;49.152;11.004;2023-08-24T04:19:44;6.80;;;6.10;;
9729;SDS011;4904;49.152;11.004;2023-08-24T04:25:45;6.97;;;6.38;;
9729;SDS011;4904;49.152;11.004;2023-08-24T04:28:26;7.68;;;7.05;;
9729;SDS011;4904;49.152;11.004;2023-08-24T04:44:04;6.82;;;6.10;;
9729;SDS011;4904;49.152;11.004;2023-08-24T04:46:33;7.20;;;6.60;;
9729;SDS011;4904;49.152;11.004;2023-08-24T04:52:29;11.50;;;6.70;;
9729;SDS011;4904;49.152;11.004;2023-08-24T04:55:07;7.07;;;6.45;;
9729;SDS011;4904;49.152;11.004;2023-08-24T04:57:54;11.32;;;7.25;;
9729;SDS011;4904;49.152;11.004;2023-08-24T05:00:51;7.70;;;6.88;;
9729;SDS011;4904;49.152;11.004;2023-08-24T05:05:11;8.27;;;7.05;;
9729;SDS011;4904;49.152;11.004;2023-08-24T05:07:18;9.60;;;7.20;;
9729;SDS011;4904;49.152;11.004;2023-08-24T05:10:37;8.30;;;7.47;;
9729;SDS011;4904;49.152;11.004;2023-08-24T05:16:27;8.18;;;7.15;;
9729;SDS011;4904;49.152;11.004;2023-08-24T05:19:21;11.55;;;6.90;;
9729;SDS011;4904;49.152;11.004;2023-08-24T05:22:15;7.70;;;6.90;;
9729;SDS011;4904;49.152;11.004;2023-08-24T05:25:11;8.13;;;7.43;;
9729;SDS011;4904;49.152;11.004;2023-08-24T05:27:54;7.38;;;6.70;;
9729;SDS011;4904;49.152;11.004;2023-08-24T05:30:35;7.60;;;7.00;;
9729;SDS011;4904;49.152;11.004;2023-08-24T05:33:25;6.90;;;6.30;;
9729;SDS011;4904;49.152;11.004;2023-08-24T05:36:27;7.38;;;6.68;;
9729;SDS011;4904;49.152;11.004;2023-08-24T05:42:28;7.55;;;6.85;;
9729;SDS011;4904;49.152;11.004;2023-08-24T05:45:26;10.77;;;7.00;;
9729;SDS011;4904;49.152;11.004;2023-08-24T05:51:51;7.68;;;6.78;;
9729;SDS011;4904;49.152;11.004;2023-08-24T05:55:17;7.95;;;7.25;;
9729;SDS011;4904;49.152;11.004;2023-08-24T05:58:02;8.27;;;7.10;;
9729;SDS011;4904;49.152;11.004;2023-08-24T06:04:11;9.90;;;7.80;;
9729;SDS011;4904;49.152;11.004;2023-08-24T06:13:35;9.77;;;8.77;;
9729;SDS011;4904;49.152;11.004;2023-08-24T06:16:30;9.70;;;8.85;;
9729;SDS011;4904;49.152;11.004;2023-08-24T06:19:17;9.73;;;8.88;;
9729;SDS011;4904;49.152;11.004;2023-08-24T06:22:15;9.77;;;8.98;;
9729;SDS011;4904;49.152;11.004;2023-08-24T06:25:15;10.65;;;8.65;;
9729;SDS011;4904;49.152;11.004;2023-08-24T06:27:44;9.60;;;8.60;;
9729;SDS011;4904;49.152;11.004;2023-08-24T06:44:02;9.35;;;8.25;;
9729;SDS011;4904;49.152;11.004;2023-08-24T06:46:40;8.65;;;7.78;;
9729;SDS011;4904;49.152;11.004;2023-08-24T06:49:30;8.93;;;8.23;;
9729;SDS011;4904;49.152;11.004;2023-08-24T06:55:32;10.25;;;8.70;;
9729;SDS011;4904;49.152;11.004;2023-08-24T06:58:01;9.25;;;8.35;;
9729;SDS011;4904;49.152;11.004;2023-08-24T07:00:30;9.05;;;7.90;;
9729;SDS011;4904;49.152;11.004;2023-08-24T07:02:57;10.13;;;9.13;;
9729;SDS011;4904;49.152;11.004;2023-08-24T07:05:24;9.73;;;8.68;;
9729;SDS011;4904;49.152;11.004;2023-08-24T07:07:52;10.45;;;8.20;;
9729;SDS011;4904;49.152;11.004;2023-08-24T07:10:19;8.40;;;7.60;;
9729;SDS011;4904;49.152;11.004;2023-08-24T07:12:47;11.20;;;8.23;;
9729;SDS011;4904;49.152;11.004;2023-08-24T07:15:15;7.68;;;6.97;;
9729;SDS011;4904;49.152;11.004;2023-08-24T07:17:43;7.95;;;7.15;;
9729;SDS011;4904;49.152;11.004;2023-08-24T07:20:10;7.63;;;6.60;;
9729;SDS011;4904;49.152;11.004;2023-08-24T07:22:38;7.75;;;6.95;;
9729;SDS011;4904;49.152;11.004;2023-08-24T07:25:05;6.78;;;6.07;;
9729;SDS011;4904;49.152;11.004;2023-08-24T07:27:33;7.85;;;7.10;;
9729;SDS011;4904;49.152;11.004;2023-08-24T07:30:02;7.38;;;6.32;;
9729;SDS011;4904;49.152;11.004;2023-08-24T07:32:32;6.65;;;6.05;;
9729;SDS011;4904;49.152;11.004;2023-08-24T07:34:59;6.75;;;6.07;;
9729;SDS011;4904;49.152;11.004;2023-08-24T07:37:27;7.35;;;6.68;;
9729;SDS011;4904;49.152;11.004;2023-08-24T07:39:54;8.10;;;5.30;;
9729;SDS011;4904;49.152;11.004;2023-08-24T07:42:21;7.93;;;6.13;;
9729;SDS011;4904;49.152;11.004;2023-08-24T07:44:48;7.45;;;6.80;;
9729;SDS011;4904;49.152;11.004;2023-08-24T07:47:16;7.28;;;6.32;;
9729;SDS011;4904;49.152;11.004;2023-08-24T07:49:44;10.10;;;6.88;;
9729;SDS011;4904;49.152;11.004;2023-08-24T07:52:11;14.25;;;7.40;;
9729;SDS011;4904;49.152;11.004;2023-08-24T07:54:38;8.43;;;6.43;;
9729;SDS011;4904;49.152;11.004;2023-08-24T07:57:06;12.52;;;6.72;;
9729;SDS011;4904;49.152;11.004;2023-08-24T07:59:33;10.40;;;6.50;;
9729;SDS011;4904;49.152;11.004;2023-08-24T08:02:03;7.40;;;6.68;;
9729;SDS011;4904;49.152;11.004;2023-08-24T08:04:35;7.05;;;6.45;;
9729;SDS011;4904;49.152;11.004;2023-08-24T08:07:03;6.95;;;6.30;;
9729;SDS011;4904;49.152;11.004;2023-08-24T08:09:30;7.22;;;6.53;;
9729;SDS011;4904;49.152;11.004;2023-08-24T08:11:57;6.75;;;6.13;;
9729;SDS011;4904;49.152;11.004;2023-08-24T08:14:25;10.07;;;5.50;;
9729;SDS011;4904;49.152;11.004;2023-08-24T08:16:53;7.55;;;5.85;;
9729;SDS011;4904;49.152;11.004;2023-08-24T08:19:20;8.27;;;5.65;;
9729;SDS011;4904;49.152;11.004;2023-08-24T08:21:47;7.15;;;5.25;;
9729;SDS011;4904;49.152;11.004;2023-08-24T08:24:15;7.25;;;5.47;;
9729;SDS011;4904;49.152;11.004;2023-08-24T08:26:42;5.75;;;5.25;;
9729;SDS011;4904;49.152;11.004;2023-08-24T08:29:09;6.20;;;5.70;;
9729;SDS011;4904;49.152;11.004;2023-08-24T08:31:37;7.25;;;4.90;;
9729;SDS011;4904;49.152;11.004;2023-08-24T08:34:03;7.80;;;5.28;;
9729;SDS011;4904;49.152;11.004;2023-08-24T08:36:30;6.13;;;5.28;;
9729;SDS011;4904;49.152;11.004;2023-08-24T08:38:58;7.85;;;5.10;;
9729;SDS011;4904;49.152;11.004;2023-08-24T08:41:28;7.57;;;5.47;;
9729;SDS011;4904;49.152;11.004;2023-08-24T08:44:04;7.72;;;5.32;;
9729;SDS011;4904;49.152;11.004;2023-08-24T08:46:32;8.18;;;7.30;;
9729;SDS011;4904;49.152;11.004;2023-08-24T08:48:59;11.45;;;9.52;;
9729;SDS011;4904;49.152;11.004;2023-08-24T08:51:27;9.63;;;6.93;;
9729;SDS011;4904;49.152;11.004;2023-08-24T08:53:55;6.63;;;5.30;;
9729;SDS011;4904;49.152;11.004;2023-08-24T08:56:23;6.38;;;4.57;;
9729;SDS011;4904;49.152;11.004;2023-08-24T08:58:51;4.82;;;4.30;;
9729;SDS011;4904;49.152;11.004;2023-08-24T09:01:20;4.95;;;4.43;;
9729;SDS011;4904;49.152;11.004;2023-08-24T09:03:48;6.20;;;4.38;;
9729;SDS011;4904;49.152;11.004;2023-08-24T09:06:15;12.07;;;4.45;;
9729;SDS011;4904;49.152;11.004;2023-08-24T09:08:42;7.22;;;4.70;;
9729;SDS011;4904;49.152;11.004;2023-08-24T09:11:09;8.55;;;4.60;;
9729;SDS011;4904;49.152;11.004;2023-08-24T09:13:36;4.78;;;4.07;;
9729;SDS011;4904;49.152;11.004;2023-08-24T09:16:05;6.40;;;4.43;;
9729;SDS011;4904;49.152;11.004;2023-08-24T09:18:35;5.97;;;4.22;;
9729;SDS011;4904;49.152;11.004;2023-08-24T09:21:07;6.00;;;4.00;;
9729;SDS011;4904;49.152;11.004;2023-08-24T09:23:35;4.55;;;4.15;;
9729;SDS011;4904;49.152;11.004;2023-08-24T09:26:03;7.57;;;3.92;;
9729;SDS011;4904;49.152;11.004;2023-08-24T09:28:31;4.38;;;3.55;;
9729;SDS011;4904;49.152;11.004;2023-08-24T09:30:59;6.75;;;3.85;;
9729;SDS011;4904;49.152;11.004;2023-08-24T09:33:29;6.03;;;4.07;;
9729;SDS011;4904;49.152;11.004;2023-08-24T09:35:56;4.70;;;3.83;;
9729;SDS011;4904;49.152;11.004;2023-08-24T09:38:26;8.20;;;3.63;;
9729;SDS011;4904;49.152;11.004;2023-08-24T09:40:54;5.55;;;3.70;;
9729;SDS011;4904;49.152;11.004;2023-08-24T09:43:22;4.13;;;3.47;;
9729;SDS011;4904;49.152;11.004;2023-08-24T09:45:51;5.57;;;3.30;;
9729;SDS011;4904;49.152;11.004;2023-08-24T09:48:18;7.57;;;3.97;;
9729;SDS011;4904;49.152;11.004;2023-08-24T09:50:47;8.77;;;3.53;;
9729;SDS011;4904;49.152;11.004;2023-08-24T09:53:16;4.00;;;3.40;;
9729;SDS011;4904;49.152;11.004;2023-08-24T09:55:47;3.97;;;3.53;;
9729;SDS011;4904;49.152;11.004;2023-08-24T09:58:18;6.40;;;3.63;;
9729;SDS011;4904;49.152;11.004;2023-08-24T10:00:46;6.25;;;3.30;;
9729;SDS011;4904;49.152;11.004;2023-08-24T10:03:13;8.93;;;3.70;;
9729;SDS011;4904;49.152;11.004;2023-08-24T10:05:46;4.13;;;3.28;;
9729;SDS011;4904;49.152;11.004;2023-08-24T10:08:17;5.68;;;3.53;;
9729;SDS011;4904;49.152;11.004;2023-08-24T10:10:47;5.30;;;3.78;;
9729;SDS011;4904;49.152;11.004;2023-08-24T10:13:22;8.50;;;3.90;;
9729;SDS011;4904;49.152;11.004;2023-08-24T10:15:55;4.13;;;3.72;;
9729;SDS011;4904;49.152;11.004;2023-08-24T10:18:24;4.00;;;3.50;;
9729;SDS011;4904;49.152;11.004;2023-08-24T10:20:53;6.32;;;3.95;;
9729;SDS011;4904;49.152;11.004;2023-08-24T10:23:21;8.30;;;4.78;;
9729;SDS011;4904;49.152;11.004;2023-08-24T10:25:49;10.20;;;9.20;;
9729;SDS011;4904;49.152;11.004;2023-08-24T10:28:17;8.23;;;6.57;;
9729;SDS011;4904;49.152;11.004;2023-08-24T10:30:46;5.32;;;3.53;;
9729;SDS011;4904;49.152;11.004;2023-08-24T10:33:14;9.65;;;3.67;;
9729;SDS011;4904;49.152;11.004;2023-08-24T10:35:42;9.88;;;3.58;;
9729;SDS011;4904;49.152;11.004;2023-08-24T10:38:23;4.93;;;3.70;;
9729;SDS011;4904;49.152;11.004;2023-08-24T10:40:52;4.10;;;3.60;;
9729;SDS011;4904;49.152;11.004;2023-08-24T10:43:19;5.55;;;3.58;;
9729;SDS011;4904;49.152;11.004;2023-08-24T10:45:55;7.55;;;3.42;;
9729;SDS011;4904;49.152;11.004;2023-08-24T10:48:24;6.28;;;3.95;;
9729;SDS011;4904;49.152;11.004;2023-08-24T10:53:53;6.97;;;3.47;;
9729;SDS011;4904;49.152;11.004;2023-08-24T10:56:24;6.22;;;4.00;;
9729;SDS011;4904;49.152;11.004;2023-08-24T10:59:09;8.15;;;3.67;;
9729;SDS011;4904;49.152;11.004;2023-08-24T11:01:38;4.97;;;3.50;;
9729;SDS011;4904;49.152;11.004;2023-08-24T11:04:06;5.43;;;4.10;;
9729;SDS011;4904;49.152;11.004;2023-08-24T11:06:34;9.85;;;3.85;;
9729;SDS011;4904;49.152;11.004;2023-08-24T11:09:08;6.05;;;3.60;;
9729;SDS011;4904;49.152;11.004;2023-08-24T11:11:40;6.82;;;3.75;;
9729;SDS011;4904;49.152;11.004;2023-08-24T11:14:13;5.55;;;4.53;;
9729;SDS011;4904;49.152;11.004;2023-08-24T11:16:42;7.32;;;4.75;;
9729;SDS011;4904;49.152;11.004;2023-08-24T11:19:10;7.95;;;4.10;;
9729;SDS011;4904;49.152;11.004;2023-08-24T11:21:38;4.95;;;3.95;;
9729;SDS011;4904;49.152;11.004;2023-08-24T11:24:08;6.50;;;3.92;;
9729;SDS011;4904;49.152;11.004;2023-08-24T11:26:39;6.05;;;3.53;;
9729;SDS011;4904;49.152;11.004;2023-08-24T11:29:07;8.43;;;4.35;;
9729;SDS011;4904;49.152;11.004;2023-08-24T11:31:34;5.00;;;3.60;;
9729;SDS011;4904;49.152;11.004;2023-08-24T11:34:01;5.40;;;3.92;;
9729;SDS011;4904;49.152;11.004;2023-08-24T11:36:29;5.93;;;3.90;;
9729;SDS011;4904;49.152;11.004;2023-08-24T11:38:57;6.10;;;3.80;;
9729;SDS011;4904;49.152;11.004;2023-08-24T11:41:26;5.03;;;3.70;;
9729;SDS011;4904;49.152;11.004;2023-08-24T11:43:59;9.20;;;4.03;;
9729;SDS011;4904;49.152;11.004;2023-08-24T11:46:28;6.25;;;4.13;;
9729;SDS011;4904;49.152;11.004;2023-08-24T11:48:57;6.20;;;3.53;;
9729;SDS011;4904;49.152;11.004;2023-08-24T11:51:25;10.70;;;4.10;;
9729;SDS011;4904;49.152;11.004;2023-08-24T11:53:52;6.43;;;3.78;;
9729;SDS011;4904;49.152;11.004;2023-08-24T11:56:23;7.35;;;4.00;;
9729;SDS011;4904;49.152;11.004;2023-08-24T11:58:51;8.10;;;3.85;;
9729;SDS011;4904;49.152;11.004;2023-08-24T12:01:18;7.63;;;4.28;;
9729;SDS011;4904;49.152;11.004;2023-08-24T12:03:45;5.38;;;3.90;;
9729;SDS011;4904;49.152;11.004;2023-08-24T12:06:13;7.05;;;3.85;;
9729;SDS011;4904;49.152;11.004;2023-08-24T12:08:41;7.53;;;3.72;;
9729;SDS011;4904;49.152;11.004;2023-08-24T12:11:12;8.00;;;4.63;;
9729;SDS011;4904;49.152;11.004;2023-08-24T12:13:42;9.02;;;6.10;;
9729;SDS011;4904;49.152;11.004;2023-08-24T12:16:12;7.95;;;6.60;;
9729;SDS011;4904;49.152;11.004;2023-08-24T12:18:48;5.50;;;5.00;;
9729;SDS011;4904;49.152;11.004;2023-08-24T12:21:20;8.45;;;3.85;;
9729;SDS011;4904;49.152;11.004;2023-08-24T12:23:57;5.85;;;3.95;;
9729;SDS011;4904;49.152;11.004;2023-08-24T12:26:25;10.45;;;3.90;;
9729;SDS011;4904;49.152;11.004;2023-08-24T12:28:53;7.45;;;4.00;;
9729;SDS011;4904;49.152;11.004;2023-08-24T12:31:27;6.00;;;3.78;;
9729;SDS011;4904;49.152;11.004;2023-08-24T12:33:58;8.10;;;6.70;;
9729;SDS011;4904;49.152;11.004;2023-08-24T12:36:27;7.60;;;4.60;;
9729;SDS011;4904;49.152;11.004;2023-08-24T12:38:54;6.15;;;5.53;;
9729;SDS011;4904;49.152;11.004;2023-08-24T12:41:22;4.68;;;4.18;;
9729;SDS011;4904;49.152;11.004;2023-08-24T12:43:50;5.15;;;3.67;;
9729;SDS011;4904;49.152;11.004;2023-08-24T12:46:17;5.03;;;3.40;;
9729;SDS011;4904;49.152;11.004;2023-08-24T12:48:46;7.68;;;3.90;;
9729;SDS011;4904;49.152;11.004;2023-08-24T12:51:13;8.50;;;3.65;;
9729;SDS011;4904;49.152;11.004;2023-08-24T12:53:40;5.07;;;3.88;;
9729;SDS011;4904;49.152;11.004;2023-08-24T12:56:07;9.57;;;5.80;;
9729;SDS011;4904;49.152;11.004;2023-08-24T12:58:34;6.78;;;4.05;;
9729;SDS011;4904;49.152;11.004;2023-08-24T13:01:01;5.00;;;4.50;;
9729;SDS011;4904;49.152;11.004;2023-08-24T13:03:28;6.47;;;3.88;;
9729;SDS011;4904;49.152;11.004;2023-08-24T13:05:57;4.65;;;3.83;;
9729;SDS011;4904;49.152;11.004;2023-08-24T13:08:24;7.78;;;3.85;;
9729;SDS011;4904;49.152;11.004;2023-08-24T13:10:51;6.47;;;3.90;;
9729;SDS011;4904;49.152;11.004;2023-08-24T13:13:18;4.25;;;3.85;;
9729;SDS011;4904;49.152;11.004;2023-08-24T13:15:48;6.35;;;4.20;;
9729;SDS011;4904;49.152;11.004;2023-08-24T13:18:15;5.28;;;4.32;;
9729;SDS011;4904;49.152;11.004;2023-08-24T13:20:42;6.03;;;3.97;;
9729;SDS011;4904;49.152;11.004;2023-08-24T13:23:11;5.60;;;3.50;;
9729;SDS011;4904;49.152;11.004;2023-08-24T13:25:38;6.18;;;4.18;;
9729;SDS011;4904;49.152;11.004;2023-08-24T13:28:05;4.57;;;4.18;;
9729;SDS011;4904;49.152;11.004;2023-08-24T13:30:32;7.15;;;3.70;;
9729;SDS011;4904;49.152;11.004;2023-08-24T13:32:59;6.60;;;3.70;;
9729;SDS011;4904;49.152;11.004;2023-08-24T13:35:27;9.45;;;4.03;;
9729;SDS011;4904;49.152;11.004;2023-08-24T13:37:55;8.05;;;3.72;;
9729;SDS011;4904;49.152;11.004;2023-08-24T13:40:23;4.03;;;3.72;;
9729;SDS011;4904;49.152;11.004;2023-08-24T13:42:50;4.40;;;4.00;;
9729;SDS011;4904;49.152;11.004;2023-08-24T13:45:17;4.45;;;4.03;;
9729;SDS011;4904;49.152;11.004;2023-08-24T13:47:46;3.85;;;3.55;;
9729;SDS011;4904;49.152;11.004;2023-08-24T13:50:13;5.22;;;4.00;;
9729;SDS011;4904;49.152;11.004;2023-08-24T13:52:40;9.57;;;4.03;;
9729;SDS011;4904;49.152;11.004;2023-08-24T13:55:07;5.68;;;4.03;;
9729;SDS011;4904;49.152;11.004;2023-08-24T13:57:38;4.80;;;3.97;;
9729;SDS011;4904;49.152;11.004;2023-08-24T14:00:06;6.57;;;4.03;;
9729;SDS011;4904;49.152;11.004;2023-08-24T14:02:36;8.35;;;4.20;;
9729;SDS011;4904;49.152;11.004;2023-08-24T14:05:04;5.22;;;4.20;;
9729;SDS011;4904;49.152;11.004;2023-08-24T14:07:34;6.43;;;4.20;;
9729;SDS011;4904;49.152;11.004;2023-08-24T14:10:02;6.10;;;3.88;;
9729;SDS011;4904;49.152;11.004;2023-08-24T14:12:29;7.30;;;4.13;;
9729;SDS011;4904;49.152;11.004;2023-08-24T14:14:57;7.97;;;4.95;;
9729;SDS011;4904;49.152;11.004;2023-08-24T14:17:24;9.63;;;8.15;;
9729;SDS011;4904;49.152;11.004;2023-08-24T14:19:51;9.27;;;4.60;;
9729;SDS011;4904;49.152;11.004;2023-08-24T14:22:19;7.00;;;5.53;;
9729;SDS011;4904;49.152;11.004;2023-08-24T14:24:46;6.22;;;4.63;;
9729;SDS011;4904;49.152;11.004;2023-08-24T14:27:13;4.57;;;4.15;;
9729;SDS011;4904;49.152;11.004;2023-08-24T14:29:40;4.85;;;4.25;;
9729;SDS011;4904;49.152;11.004;2023-08-24T14:32:09;6.80;;;4.47;;
9729;SDS011;4904;49.152;11.004;2023-08-24T14:34:36;5.43;;;4.45;;
9729;SDS011;4904;49.152;11.004;2023-08-24T14:37:04;5.72;;;4.45;;
9729;SDS011;4904;49.152;11.004;2023-08-24T14:39:31;8.23;;;4.20;;
9729;SDS011;4904;49.152;11.004;2023-08-24T14:41:58;5.45;;;4.72;;
9729;SDS011;4904;49.152;11.004;2023-08-24T14:44:30;7.72;;;4.57;;
9729;SDS011;4904;49.152;11.004;2023-08-24T14:46:57;7.15;;;4.75;;
9729;SDS011;4904;49.152;11.004;2023-08-24T14:49:25;8.35;;;4.75;;
9729;SDS011;4904;49.152;11.004;2023-08-24T14:51:53;9.93;;;4.93;;
9729;SDS011;4904;49.152;11.004;2023-08-24T14:54:20;5.05;;;4.43;;
9729;SDS011;4904;49.152;11.004;2023-08-24T14:56:48;9.00;;;4.80;;
9729;SDS011;4904;49.152;11.004;2023-08-24T14:59:15;5.25;;;4.72;;
9729;SDS011;4904;49.152;11.004;2023-08-24T15:01:42;5.20;;;4.57;;
9729;SDS011;4904;49.152;11.004;2023-08-24T15:04:10;7.85;;;5.07;;
9729;SDS011;4904;49.152;11.004;2023-08-24T15:06:39;6.88;;;5.10;;
9729;SDS011;4904;49.152;11.004;2023-08-24T15:09:06;5.43;;;4.95;;
9729;SDS011;4904;49.152;11.004;2023-08-24T15:11:33;5.70;;;5.20;;
9729;SDS011;4904;49.152;11.004;2023-08-24T15:14:00;5.75;;;4.65;;
9729;SDS011;4904;49.152;11.004;2023-08-24T15:16:27;7.80;;;5.70;;
9729;SDS011;4904;49.152;11.004;2023-08-24T15:18:54;5.35;;;4.30;;
9729;SDS011;4904;49.152;11.004;2023-08-24T15:21:22;6.60;;;5.00;;
9729;SDS011;4904;49.152;11.004;2023-08-24T15:23:50;7.20;;;5.60;;
9729;SDS011;4904;49.152;11.004;2023-08-24T15:26:17;9.02;;;4.85;;
9729;SDS011;4904;49.152;11.004;2023-08-24T15:31:34;7.03;;;5.03;;
9729;SDS011;4904;49.152;11.004;2023-08-24T15:34:00;11.27;;;4.55;;
9729;SDS011;4904;49.152;11.004;2023-08-24T15:36:28;7.03;;;4.90;;
9729;SDS011;4904;49.152;11.004;2023-08-24T15:38:56;7.00;;;4.90;;
9729;SDS011;4904;49.152;11.004;2023-08-24T15:41:23;7.40;;;4.60;;
9729;SDS011;4904;49.152;11.004;2023-08-24T15:43:51;5.50;;;5.00;;
9729;SDS011;4904;49.152;11.004;2023-08-24T15:46:18;9.40;;;5.13;;
9729;SDS011;4904;49.152;11.004;2023-08-24T15:48:45;8.60;;;5.45;;
9729;SDS011;4904;49.152;11.004;2023-08-24T15:51:12;8.18;;;5.07;;
9729;SDS011;4904;49.152;11.004;2023-08-24T15:53:39;8.38;;;5.20;;
9729;SDS011;4904;49.152;11.004;2023-08-24T15:56:07;10.73;;;5.18;;
9729;SDS011;4904;49.152;11.004;2023-08-24T15:58:35;7.95;;;5.50;;
9729;SDS011;4904;49.152;11.004;2023-08-24T16:01:02;6.75;;;4.90;;
9729;SDS011;4904;49.152;11.004;2023-08-24T16:03:29;9.00;;;4.95;;
9729;SDS011;4904;49.152;11.004;2023-08-24T16:05:56;10.23;;;4.95;;
9729;SDS011;4904;49.152;11.004;2023-08-24T16:08:23;7.90;;;5.22;;
9729;SDS011;4904;49.152;11.004;2023-08-24T16:10:54;9.55;;;4.97;;
9729;SDS011;4904;49.152;11.004;2023-08-24T16:13:24;7.10;;;4.85;;
9729;SDS011;4904;49.152;11.004;2023-08-24T16:15:52;7.03;;;4.53;;
9729;SDS011;4904;49.152;11.004;2023-08-24T16:18:21;7.13;;;6.35;;
9729;SDS011;4904;49.152;11.004;2023-08-24T16:20:50;6.82;;;5.20;;